HE12 weather

Inshas Air Base
Inshas, Sharqia Governorate, Egypt

Public forecast

Using degrees Celsius for public forecast. Weather courtesy of forecast.io.

METAR (pilot weather report)

Closest report is Cairo International Airport, 12.8 nm (23.8 km) S. Retrieved 2019/03/25 15:30 UTC (0 seconds ago):

HECA 251530Z 32010KT 9999 SCT025 SCT030 19/04 Q1008 NOSIG

TAF (pilot weather forecast)

Closest forecast is Cairo International Airport, 12.8 nm (23.8 km) S. Retrieved 2019/03/25 12:17 UTC (3 hours ago):

TAF HECA 251100Z 2512/2618 32010G20KT 9999 SCT025